Time;durP1;ratioP1;P1;durP2;ratioP2;P2;SDS_P1;SDS_P2;PMS_P1;PMS_P2;Temp;Humidity;BMP_temperature;BMP_pressure;BME280_temperature;BME280_humidity;BME280_pressure;Samples;Min_cycle;Max_cycle;Signal;HPM_P1;HPM_P2
2022/06/13 00:02:03;;;;;;;7.78;7.05;;;;;;;20.09;81.80;100405.47;6210329;23;20061;-64
2022/06/13 00:04:28;;;;;;;11.20;6.75;;;;;;;20.05;82.36;100398.69;6212131;23;20075;-65
2022/06/13 00:06:54;;;;;;;6.95;6.25;;;;;;;20.01;82.56;100391.94;6212162;23;20005;-64
2022/06/13 00:09:20;;;;;;;9.93;6.63;;;;;;;19.94;82.94;100389.19;6211983;23;20036;-64
2022/06/13 00:11:45;;;;;;;7.93;6.13;;;;;;;19.85;83.18;100379.44;6212571;23;20011;-64
2022/06/13 00:14:10;;;;;;;10.77;6.82;;;;;;;19.91;82.79;100396.88;6210563;23;20058;-64
2022/06/13 00:16:37;;;;;;;9.13;7.00;;;;;;;19.88;83.37;100395.38;6212027;23;20013;-64
2022/06/13 00:19:03;;;;;;;8.30;6.88;;;;;;;19.83;83.47;100386.94;6211914;23;20292;-65
2022/06/13 00:21:32;;;;;;;9.10;6.47;;;;;;;19.82;83.61;100385.25;6212008;23;20036;-64
2022/06/13 00:23:59;;;;;;;11.32;6.90;;;;;;;19.79;83.71;100380.19;6211949;23;20436;-64
2022/06/13 00:26:26;;;;;;;8.20;6.88;;;;;;;19.74;84.04;100382.63;6211733;23;20004;-63
2022/06/13 00:28:53;;;;;;;9.90;6.85;;;;;;;19.71;83.97;100379.47;6212164;23;20441;-63
2022/06/13 00:31:19;;;;;;;8.90;7.25;;;;;;;19.66;83.83;100384.63;6212055;23;20005;-64
2022/06/13 00:33:45;;;;;;;9.82;7.85;;;;;;;19.64;83.68;100381.28;6212289;23;20019;-63
2022/06/13 00:36:10;;;;;;;7.68;6.82;;;;;;;19.53;83.72;100362.72;6211902;23;20000;-65
2022/06/13 00:38:37;;;;;;;7.53;6.43;;;;;;;19.55;83.85;100372.41;6211804;23;20032;-63
2022/06/13 00:41:11;;;;;;;9.88;7.00;;;;;;;19.49;83.52;100365.00;6211990;23;20022;-63
2022/06/13 00:43:43;;;;;;;8.70;7.00;;;;;;;19.46;83.90;100367.22;6212001;23;20004;-64
2022/06/13 00:46:41;;;;;;;6.22;5.65;;;;;;;19.40;84.23;100363.41;6211682;23;20363;-64
2022/06/13 00:49:09;;;;;;;8.93;6.75;;;;;;;19.36;84.23;100362.09;6145010;23;20405;-64
2022/06/13 00:51:42;;;;;;;7.45;6.72;;;;;;;19.29;84.14;100353.03;6211960;23;20052;-64
2022/06/13 00:54:07;;;;;;;8.95;6.78;;;;;;;19.31;84.21;100361.81;6211687;23;20039;-63
2022/06/13 00:56:36;;;;;;;8.15;6.65;;;;;;;19.31;84.38;100358.28;6211907;23;20005;-63
2022/06/13 00:59:05;;;;;;;9.15;6.63;;;;;;;19.21;84.37;100344.91;6211736;23;20005;-63
2022/06/13 01:01:32;;;;;;;9.30;6.50;;;;;;;19.24;84.36;100347.25;6211759;23;20489;-63
2022/06/13 01:04:01;;;;;;;6.93;6.22;;;;;;;19.20;84.22;100348.69;6211806;23;20083;-63
2022/06/13 01:06:30;;;;;;;7.72;6.90;;;;;;;19.18;84.04;100348.00;6185102;23;20012;-64
2022/06/13 01:08:56;;;;;;;6.90;6.20;;;;;;;19.09;84.08;100340.97;6211897;23;20008;-63
2022/06/13 01:11:24;;;;;;;9.52;6.57;;;;;;;19.11;83.83;100351.66;6211396;23;20444;-63
2022/06/13 01:14:10;;;;;;;8.70;6.63;;;;;;;19.08;84.42;100346.59;6211482;23;20453;-64
2022/06/13 01:16:54;;;;;;;8.00;6.30;;;;;;;19.01;84.39;100349.25;6211516;23;20005;-63
2022/06/13 01:19:22;;;;;;;7.63;6.38;;;;;;;19.02;85.23;100344.66;6210741;23;20012;-64
2022/06/13 01:21:55;;;;;;;7.93;6.30;;;;;;;18.99;85.01;100347.75;6211346;23;20260;-63
2022/06/13 01:24:24;;;;;;;7.57;6.88;;;;;;;18.95;84.75;100341.84;6211013;23;20008;-64
2022/06/13 01:27:11;;;;;;;7.28;6.50;;;;;;;18.91;85.34;100337.81;6211434;23;20610;-64
2022/06/13 01:29:47;;;;;;;7.75;6.85;;;;;;;18.88;85.29;100335.47;6211581;23;20430;-64
2022/06/13 01:32:34;;;;;;;7.38;6.60;;;;;;;18.86;85.78;100336.69;6211518;23;20366;-63
2022/06/13 01:35:21;;;;;;;8.73;6.60;;;;;;;18.73;85.30;100309.34;6210675;23;20487;-64
2022/06/13 01:38:12;;;;;;;8.75;6.22;;;;;;;18.81;84.96;100333.69;6211688;23;20031;-64
2022/06/13 01:41:12;;;;;;;6.93;6.18;;;;;;;18.73;85.26;100326.47;6198205;23;20031;-63
2022/06/13 01:43:52;;;;;;;7.80;5.90;;;;;;;18.71;85.02;100322.25;6188956;23;20005;-63
2022/06/13 01:46:29;;;;;;;7.22;6.35;;;;;;;18.67;85.78;100329.91;6210928;23;20040;-64
2022/06/13 01:49:21;;;;;;;7.60;6.13;;;;;;;18.63;85.74;100323.19;6211407;23;20008;-64
2022/06/13 01:51:51;;;;;;;9.35;6.55;;;;;;;18.59;85.76;100321.00;6211360;23;20460;-63
2022/06/13 01:54:57;;;;;;;7.88;6.72;;;;;;;18.52;85.12;100309.22;6184906;23;20013;-63
2022/06/13 01:57:54;;;;;;;8.13;6.15;;;;;;;18.53;84.85;100319.88;6211539;23;20375;-64
2022/06/13 02:00:28;;;;;;;7.43;6.10;;;;;;;18.50;85.07;100306.69;6211314;23;20015;-64
2022/06/13 02:03:08;;;;;;;6.70;6.00;;;;;;;18.46;85.08;100301.78;6211481;23;20031;-64
2022/06/13 02:05:46;;;;;;;8.43;6.10;;;;;;;18.42;85.11;100306.78;6211293;23;20486;-64
2022/06/13 02:08:23;;;;;;;7.35;5.80;;;;;;;18.38;85.72;100308.16;6184697;23;20054;-64
2022/06/13 02:11:01;;;;;;;6.60;5.50;;;;;;;18.36;86.15;100304.78;6211405;23;20004;-64
2022/06/13 02:13:53;;;;;;;6.18;5.65;;;;;;;18.34;86.33;100311.41;6211423;23;20023;-64
2022/06/13 02:16:24;;;;;;;7.88;5.70;;;;;;;18.30;86.38;100302.78;6198376;23;20025;-64
2022/06/13 02:18:58;;;;;;;8.32;5.63;;;;;;;18.29;85.91;100306.53;6211461;23;20020;-64
2022/06/13 02:21:33;;;;;;;9.23;6.50;;;;;;;18.28;86.50;100306.72;6211290;23;20005;-64
2022/06/13 02:24:00;;;;;;;6.53;5.93;;;;;;;18.24;86.76;100297.22;6211304;23;20004;-64
2022/06/13 02:26:32;;;;;;;6.85;6.15;;;;;;;18.26;87.02;100301.47;6211265;23;20345;-64
2022/06/13 02:29:05;;;;;;;8.73;6.35;;;;;;;18.27;87.36;100300.44;6211314;23;20085;-63
2022/06/13 02:31:46;;;;;;;8.18;6.32;;;;;;;18.26;87.24;100306.03;6211716;23;20004;-64
2022/06/13 02:34:18;;;;;;;6.50;5.80;;;;;;;18.17;86.91;100285.41;6213259;23;20014;-64
2022/06/13 02:36:55;;;;;;;8.07;5.20;;;;;;;18.22;86.66;100297.44;6186305;23;20060;-63
2022/06/13 02:40:00;;;;;;;10.13;5.80;;;;;;;18.17;86.29;100293.56;6212759;23;20374;-63
2022/06/13 02:42:27;;;;;;;6.18;5.57;;;;;;;18.15;86.56;100299.19;6212954;23;19996;-64
2022/06/13 02:45:06;;;;;;;7.13;5.18;;;;;;;18.11;86.41;100300.56;6212841;23;20009;-64
2022/06/13 02:47:37;;;;;;;6.18;5.57;;;;;;;18.09;86.56;100305.38;6212741;23;20338;-64
2022/06/13 02:50:06;;;;;;;6.65;5.55;;;;;;;18.06;86.97;100300.28;6212654;23;20016;-64
2022/06/13 02:52:42;;;;;;;10.15;5.88;;;;;;;18.03;87.13;100306.09;6212843;23;20004;-64
2022/06/13 02:55:11;;;;;;;9.55;6.18;;;;;;;18.03;87.68;100300.66;6186106;23;20008;-64
2022/06/13 02:57:42;;;;;;;6.78;5.80;;;;;;;18.02;87.51;100299.81;6212755;23;20008;-64
2022/06/13 03:00:08;;;;;;;7.70;5.68;;;;;;;18.02;87.68;100298.94;6212503;23;20009;-64
2022/06/13 03:02:43;;;;;;;5.70;5.20;;;;;;;18.01;87.31;100303.56;6212622;23;20562;-64
2022/06/13 03:05:30;;;;;;;9.25;6.20;;;;;;;17.99;87.65;100302.88;6212427;23;20008;-64
2022/06/13 03:08:19;;;;;;;8.40;6.03;;;;;;;18.00;87.33;100306.44;6212690;23;20023;-65
2022/06/13 03:11:19;;;;;;;6.18;5.57;;;;;;;18.00;86.70;100301.03;6155063;23;20611;-64
2022/06/13 03:14:05;;;;;;;9.93;5.80;;;;;;;17.99;86.24;100299.31;6212987;23;20004;-64
2022/06/13 03:16:40;;;;;;;10.32;5.97;;;;;;;17.96;86.25;100302.41;6186028;23;20016;-65
2022/06/13 03:19:41;;;;;;;15.02;5.68;;;;;;;18.02;86.04;100307.09;6185252;23;20031;-64
2022/06/13 03:22:34;;;;;;;10.75;5.97;;;;;;;18.01;86.12;100308.13;6212288;23;20009;-64
2022/06/13 03:25:24;;;;;;;6.43;4.88;;;;;;;18.01;86.26;100308.97;6212249;23;20051;-64
2022/06/13 03:27:56;;;;;;;7.53;5.68;;;;;;;18.00;86.25;100304.56;6212695;23;20369;-65
2022/06/13 03:30:25;;;;;;;8.50;5.90;;;;;;;18.03;86.22;100311.53;6212574;23;20000;-64
2022/06/13 03:35:43;;;;;;;9.32;5.93;;;;;;;18.13;87.41;100298.53;6212342;23;20086;-65
2022/06/13 03:38:14;;;;;;;10.43;5.85;;;;;;;18.21;87.45;100305.75;6180386;23;20025;-64
2022/06/13 03:40:41;;;;;;;8.90;5.88;;;;;;;18.28;87.24;100310.25;6182355;23;20012;-64
2022/06/13 03:43:24;;;;;;;12.70;5.22;;;;;;;18.37;86.96;100300.19;6182002;23;20020;-64
2022/06/13 03:46:03;;;;;;;9.77;5.93;;;;;;;18.45;86.56;100297.41;6181974;23;20024;-64
2022/06/13 03:48:39;;;;;;;13.45;5.65;;;;;;;18.54;86.31;100302.56;6178622;23;20063;-64
2022/06/13 03:51:13;;;;;;;13.68;6.05;;;;;;;18.63;86.47;100301.44;6182236;23;20012;-64
2022/06/13 03:53:45;;;;;;;6.82;5.50;;;;;;;18.70;86.16;100307.81;6182340;23;20076;-65
2022/06/13 03:56:21;;;;;;;10.43;5.25;;;;;;;18.80;85.91;100310.25;6181992;23;20008;-65
2022/06/13 03:59:04;;;;;;;7.07;4.95;;;;;;;18.92;84.47;100309.59;6182528;23;20251;-64
2022/06/13 04:01:36;;;;;;;6.25;4.63;;;;;;;19.00;83.93;100305.94;6182183;23;20012;-65
2022/06/13 04:04:02;;;;;;;7.15;5.07;;;;;;;19.07;82.79;100301.44;6182162;23;20084;-64
2022/06/13 04:06:39;;;;;;;8.48;4.93;;;;;;;19.25;82.17;100313.56;6180758;23;20005;-63
2022/06/13 04:09:10;;;;;;;7.53;4.82;;;;;;;19.34;80.86;100309.75;6181898;23;20008;-63
2022/06/13 04:11:51;;;;;;;7.32;4.68;;;;;;;19.49;79.71;100307.00;6182328;23;20025;-63
2022/06/13 04:14:45;;;;;;;15.40;6.13;;;;;;;19.66;77.85;100313.88;6182536;23;20035;-63
2022/06/13 04:17:32;;;;;;;8.30;3.85;;;;;;;19.79;76.88;100314.88;6181999;23;20080;-64
2022/06/13 04:20:27;;;;;;;8.27;4.35;;;;;;;19.94;75.32;100312.94;6181879;23;20005;-63
2022/06/13 04:23:07;;;;;;;7.10;4.07;;;;;;;20.08;74.61;100317.47;6181977;23;20001;-63
2022/06/13 04:25:46;;;;;;;8.63;3.40;;;;;;;20.25;73.30;100315.34;6181557;23;20005;-64
2022/06/13 04:28:34;;;;;;;14.52;3.30;;;;;;;20.31;72.14;100290.03;6181773;23;20047;-64
2022/06/13 04:31:03;;;;;;;6.90;3.28;;;;;;;20.63;71.42;100313.13;6181553;23;20008;-64
2022/06/13 04:33:31;;;;;;;6.25;3.05;;;;;;;20.78;69.98;100308.38;6181991;23;20438;-64
2022/06/13 04:35:58;;;;;;;9.98;4.18;;;;;;;20.92;68.31;100307.44;6179912;23;20001;-65
2022/06/13 04:38:25;;;;;;;4.65;3.20;;;;;;;21.10;67.54;100310.47;6200169;23;20473;-64
2022/06/13 04:40:59;;;;;;;4.20;3.15;;;;;;;21.26;66.45;100302.81;6211434;23;20000;-64
2022/06/13 04:43:33;;;;;;;6.38;2.55;;;;;;;21.42;66.25;100287.97;6211497;23;20083;-64
2022/06/13 04:46:04;;;;;;;8.38;2.85;;;;;;;21.62;65.07;100291.56;6211394;23;20338;-64
2022/06/13 04:48:31;;;;;;;3.67;2.83;;;;;;;21.84;64.08;100310.38;6183075;23;20531;-64
2022/06/13 04:51:11;;;;;;;5.82;2.50;;;;;;;22.05;63.55;100301.97;6209686;23;20008;-64
2022/06/13 04:54:04;;;;;;;3.53;2.45;;;;;;;22.25;62.15;100296.53;6211565;23;20008;-64
2022/06/13 04:56:30;;;;;;;5.97;2.60;;;;;;;22.42;60.73;100297.78;6211034;23;20429;-64
2022/06/13 04:58:58;;;;;;;5.05;2.80;;;;;;;22.52;59.06;100298.22;6211132;23;20004;-64
2022/06/13 05:01:55;;;;;;;4.53;2.63;;;;;;;22.80;58.46;100300.72;6211384;23;20001;-64
2022/06/13 05:04:26;;;;;;;7.00;2.58;;;;;;;22.92;57.93;100299.00;6210973;23;20417;-64
2022/06/13 05:06:54;;;;;;;2.88;2.38;;;;;;;23.12;56.71;100317.00;6211337;23;20030;-64
2022/06/13 05:09:22;;;;;;;6.72;3.00;;;;;;;23.24;56.61;100326.28;6211195;23;20087;-64
2022/06/13 05:12:04;;;;;;;6.47;2.50;;;;;;;23.33;55.63;100318.66;6211657;23;20011;-64
2022/06/13 05:14:44;;;;;;;5.85;2.53;;;;;;;23.40;55.38;100311.25;6210851;23;20075;-63
2022/06/13 05:17:48;;;;;;;4.25;2.63;;;;;;;23.66;54.70;100313.84;6210286;23;20489;-63
2022/06/13 05:20:17;;;;;;;3.42;2.45;;;;;;;23.79;54.40;100302.81;6210565;23;20013;-63
2022/06/13 05:23:03;;;;;;;6.18;3.17;;;;;;;23.94;53.21;100304.25;6210900;23;20005;-63
2022/06/13 05:25:45;;;;;;;7.78;3.08;;;;;;;24.04;53.05;100301.84;6210497;23;20043;-63
2022/06/13 05:28:15;;;;;;;5.53;2.38;;;;;;;24.22;53.03;100303.84;6183814;23;20009;-63
2022/06/13 05:30:47;;;;;;;3.78;2.40;;;;;;;24.38;52.23;100304.09;6211347;23;20027;-63
2022/06/13 05:33:15;;;;;;;4.78;2.47;;;;;;;24.45;51.74;100293.09;6210639;23;20004;-64
2022/06/13 05:35:43;;;;;;;4.97;2.70;;;;;;;24.57;50.92;100295.94;6210640;23;19997;-63
2022/06/13 05:38:15;;;;;;;6.15;2.78;;;;;;;24.67;50.81;100296.28;6210374;23;20020;-64
2022/06/13 05:40:40;;;;;;;4.75;2.40;;;;;;;24.82;50.30;100302.25;6210391;23;20096;-63
2022/06/13 05:43:06;;;;;;;6.90;2.45;;;;;;;24.89;49.33;100283.81;6210680;23;20092;-64
2022/06/13 05:45:31;;;;;;;4.10;2.67;;;;;;;25.00;49.13;100297.63;6210213;23;20005;-65
2022/06/13 05:47:57;;;;;;;3.95;2.17;;;;;;;25.08;49.20;100291.81;6208173;23;20032;-65
2022/06/13 05:50:29;;;;;;;5.28;2.35;;;;;;;25.18;49.04;100294.03;6208243;23;20074;-65
2022/06/13 05:52:54;;;;;;;7.35;2.35;;;;;;;25.33;48.84;100294.50;6209721;23;20341;-65
2022/06/13 05:55:20;;;;;;;2.85;2.03;;;;;;;25.46;48.52;100294.31;6210436;23;19996;-65
2022/06/13 05:57:46;;;;;;;3.53;2.45;;;;;;;25.61;48.16;100292.88;6210390;23;20361;-65
2022/06/13 06:00:18;;;;;;;2.60;2.28;;;;;;;25.72;47.99;100291.22;6210560;23;20459;-65
2022/06/13 06:02:43;;;;;;;6.40;3.45;;;;;;;25.80;47.91;100288.97;6210433;23;20484;-65
2022/06/13 06:05:09;;;;;;;5.43;2.58;;;;;;;25.92;47.62;100291.78;6209985;23;20004;-65
2022/06/13 06:07:36;;;;;;;3.78;2.20;;;;;;;26.05;47.39;100286.94;6211698;23;20004;-65
2022/06/13 06:10:03;;;;;;;4.57;2.55;;;;;;;26.24;46.92;100290.44;6212263;23;20065;-65
2022/06/13 06:12:28;;;;;;;4.45;2.33;;;;;;;26.35;47.20;100279.44;6185520;23;20495;-65
2022/06/13 06:14:54;;;;;;;2.78;2.50;;;;;;;26.56;46.90;100283.53;6212356;23;20001;-66
2022/06/13 06:17:19;;;;;;;7.03;3.03;;;;;;;26.62;46.79;100285.34;6212137;23;20012;-65
2022/06/13 06:19:44;;;;;;;4.72;2.72;;;;;;;26.73;46.74;100286.44;6212240;23;20080;-65
2022/06/13 06:22:10;;;;;;;4.47;2.72;;;;;;;26.87;45.89;100290.59;6211753;23;20445;-65
2022/06/13 06:24:35;;;;;;;3.63;2.60;;;;;;;27.00;45.93;100285.69;6212045;23;20008;-65
2022/06/13 06:27:02;;;;;;;4.45;2.50;;;;;;;27.11;45.87;100289.50;6212256;23;20075;-65
2022/06/13 06:29:27;;;;;;;4.07;2.60;;;;;;;27.14;45.56;100276.06;6185476;23;20004;-65
2022/06/13 06:31:54;;;;;;;5.13;2.95;;;;;;;27.28;44.89;100276.69;6212201;23;20023;-65
2022/06/13 06:34:19;;;;;;;5.88;2.90;;;;;;;27.44;44.80;100290.50;6212171;23;20009;-65
2022/06/13 06:36:45;;;;;;;2.88;2.47;;;;;;;27.56;44.85;100296.81;6185168;23;20008;-65
2022/06/13 06:39:10;;;;;;;3.10;2.80;;;;;;;27.61;44.59;100287.81;6211740;23;20021;-65
2022/06/13 06:41:36;;;;;;;5.57;2.88;;;;;;;27.68;44.66;100283.84;6211953;23;20005;-65
2022/06/13 06:44:01;;;;;;;6.90;2.97;;;;;;;27.79;44.33;100282.94;6212074;23;20001;-65
2022/06/13 06:46:27;;;;;;;3.55;2.72;;;;;;;27.90;43.87;100295.88;6211923;23;20012;-65
2022/06/13 06:48:52;;;;;;;6.93;3.15;;;;;;;27.97;43.96;100288.28;6212546;23;20084;-65
2022/06/13 06:51:18;;;;;;;5.72;2.95;;;;;;;28.02;44.13;100282.84;6212749;23;20453;-64
2022/06/13 07:01:59;;;;;;;5.18;2.72;;;;;;;28.62;42.76;100296.84;6212371;23;20377;-65
2022/06/13 07:04:25;;;;;;;5.38;2.63;;;;;;;28.73;42.76;100279.38;6212374;23;20080;-65
2022/06/13 07:06:50;;;;;;;4.82;2.90;;;;;;;28.83;41.93;100287.81;6212735;23;20040;-65
2022/06/13 07:09:16;;;;;;;4.45;2.95;;;;;;;28.85;42.00;100282.03;6212288;23;20370;-65
2022/06/13 07:11:53;;;;;;;8.43;2.95;;;;;;;28.95;41.97;100287.69;6212580;23;20000;-65
2022/06/13 07:14:20;;;;;;;3.22;2.63;;;;;;;29.13;41.59;100285.50;6212049;23;20505;-65
2022/06/13 07:16:46;;;;;;;7.30;2.90;;;;;;;29.26;41.33;100293.41;6212395;23;20449;-65
2022/06/13 07:19:12;;;;;;;4.60;2.55;;;;;;;29.35;40.58;100280.81;6211697;23;20008;-65
2022/06/13 07:21:37;;;;;;;6.75;2.47;;;;;;;29.52;40.36;100280.72;6212377;23;20027;-65
2022/06/13 07:24:03;;;;;;;9.02;2.92;;;;;;;29.65;40.30;100296.94;6212438;23;20009;-65
2022/06/13 07:26:28;;;;;;;4.72;2.70;;;;;;;29.63;39.74;100282.56;6210470;23;19997;-65
2022/06/13 07:28:55;;;;;;;5.93;2.70;;;;;;;29.68;40.10;100279.81;6212552;23;20004;-65
2022/06/13 07:31:41;;;;;;;3.60;2.72;;;;;;;29.74;39.78;100285.19;6212015;23;20005;-65
2022/06/13 07:34:14;;;;;;;5.03;2.88;;;;;;;29.77;39.61;100281.88;6212275;23;20488;-65
2022/06/13 07:36:42;;;;;;;3.92;2.80;;;;;;;29.82;39.67;100286.63;6212307;23;20004;-65
2022/06/13 07:39:08;;;;;;;5.25;2.60;;;;;;;29.87;39.74;100284.75;6212071;23;20052;-65
2022/06/13 07:41:33;;;;;;;4.05;2.67;;;;;;;29.82;39.62;100275.56;6211982;23;20664;-65
2022/06/13 07:43:59;;;;;;;3.97;2.03;;;;;;;29.81;38.96;100276.66;6212272;23;20123;-65
2022/06/13 07:46:27;;;;;;;3.50;2.78;;;;;;;29.81;38.83;100271.13;6212044;23;20011;-65
2022/06/13 07:48:53;;;;;;;5.68;2.78;;;;;;;29.90;38.52;100280.63;6212145;23;20050;-65
2022/06/13 07:51:21;;;;;;;2.63;2.15;;;;;;;29.83;38.51;100277.25;6212003;23;20020;-65
2022/06/13 07:53:47;;;;;;;2.55;2.13;;;;;;;29.93;38.31;100282.88;6212073;23;20034;-65
2022/06/13 07:56:16;;;;;;;4.07;2.45;;;;;;;29.92;38.29;100279.25;6211996;23;20024;-65
2022/06/13 07:58:43;;;;;;;4.28;1.90;;;;;;;29.88;38.04;100275.34;6211936;23;20087;-65
2022/06/13 08:01:10;;;;;;;2.58;2.13;;;;;;;29.91;37.60;100279.53;6211740;23;20001;-65
2022/06/13 08:03:36;;;;;;;2.03;1.80;;;;;;;29.97;36.45;100278.47;6212056;23;20079;-65
2022/06/13 08:06:04;;;;;;;1.88;1.45;;;;;;;30.01;36.50;100283.22;6211860;23;20062;-65
2022/06/13 08:08:31;;;;;;;2.58;1.92;;;;;;;30.02;36.45;100270.25;6216051;23;20004;-65
2022/06/13 08:11:06;;;;;;;2.35;2.05;;;;;;;30.10;36.16;100272.50;6186810;23;20433;-65
2022/06/13 08:13:37;;;;;;;3.63;2.70;;;;;;;30.11;37.10;100263.94;6192153;23;20012;-65
2022/06/13 08:16:04;;;;;;;4.25;2.30;;;;;;;30.19;37.30;100274.59;6220617;23;20664;-65
2022/06/13 08:18:38;;;;;;;4.13;2.55;;;;;;;30.21;36.99;100264.06;6219497;23;20326;-65
2022/06/13 08:21:12;;;;;;;3.00;2.40;;;;;;;30.28;37.27;100252.78;6220350;23;20052;-65
2022/06/13 08:23:45;;;;;;;4.90;2.72;;;;;;;30.44;36.56;100268.41;6192509;23;20491;-66
2022/06/13 08:26:17;;;;;;;3.33;2.40;;;;;;;30.44;36.83;100260.13;6216847;23;20004;-65
2022/06/13 08:28:42;;;;;;;5.47;2.42;;;;;;;30.60;36.67;100275.75;6193427;23;20326;-65
2022/06/13 08:31:40;;;;;;;3.78;2.17;;;;;;;30.68;36.66;100266.94;6192789;23;20011;-65
2022/06/13 08:34:12;;;;;;;2.30;2.10;;;;;;;30.70;36.28;100253.66;6152935;23;20015;-65
2022/06/13 08:36:48;;;;;;;3.25;1.60;;;;;;;30.88;36.60;100261.53;6219917;23;20079;-65
2022/06/13 08:39:14;;;;;;;2.20;2.00;;;;;;;30.98;36.31;100266.31;6193038;23;20032;-65
2022/06/13 08:41:55;;;;;;;8.23;2.33;;;;;;;31.09;35.07;100277.19;6190938;23;20721;-65
2022/06/13 08:45:18;;;;;;;5.40;2.22;;;;;;;31.12;34.83;100267.50;6192025;23;20048;-65
2022/06/13 08:47:53;;;;;;;8.27;2.15;;;;;;;31.20;35.09;100270.56;6126317;23;20029;-65
2022/06/13 08:53:39;;;;;;;3.28;2.20;;;;;;;31.38;35.20;100264.59;6135482;23;20041;-73
2022/06/13 08:56:09;;;;;;;9.32;2.45;;;;;;;31.46;34.38;100260.47;6119048;23;20045;-73
2022/06/13 08:58:37;;;;;;;2.35;2.00;;;;;;;31.45;34.00;100258.78;6209488;23;20027;-73
2022/06/13 09:01:37;;;;;;;2.22;1.80;;;;;;;31.44;33.81;100252.41;6211492;23;20004;-74
2022/06/13 09:04:11;;;;;;;2.72;1.67;;;;;;;31.39;32.37;100254.31;6160432;23;20040;-73
2022/06/13 09:06:51;;;;;;;2.13;1.75;;;;;;;31.36;32.52;100254.88;6211236;23;20381;-73
2022/06/13 09:09:28;;;;;;;4.05;1.88;;;;;;;31.20;33.23;100236.47;6210773;23;20008;-73
2022/06/13 09:12:07;;;;;;;2.55;1.75;;;;;;;31.35;33.54;100255.97;6211364;23;20011;-74
2022/06/13 09:14:58;;;;;;;3.17;2.10;;;;;;;31.35;33.76;100245.72;6211122;23;20012;-73
2022/06/13 09:17:35;;;;;;;2.92;2.05;;;;;;;31.31;33.86;100249.31;6210888;23;20474;-74
2022/06/13 09:20:13;;;;;;;1.80;1.70;;;;;;;31.37;33.96;100251.81;6211350;23;20008;-74
2022/06/13 09:23:00;;;;;;;2.28;1.90;;;;;;;31.40;34.11;100253.25;6211220;23;20004;-73
2022/06/13 09:25:36;;;;;;;2.38;1.55;;;;;;;31.42;33.72;100253.78;6184454;23;20091;-74
2022/06/13 09:28:10;;;;;;;2.53;1.77;;;;;;;31.39;33.22;100259.88;6211373;23;20008;-74
2022/06/13 09:30:38;;;;;;;;;;;;;;;31.34;33.52;100255.13;6211976;23;20330;-74
2022/06/13 09:33:29;;;;;;;3.97;2.33;;;;;;;31.35;33.95;100245.72;6211233;23;19910;-74
2022/06/13 09:36:13;;;;;;;2.17;1.98;;;;;;;31.41;34.16;100243.81;6211419;23;20036;-74
2022/06/13 09:38:48;;;;;;;2.53;1.92;;;;;;;31.44;34.22;100229.41;6211280;23;20322;-73
2022/06/13 09:41:45;;;;;;;3.35;1.58;;;;;;;31.50;34.37;100237.44;6184505;23;20008;-74
2022/06/13 09:44:28;;;;;;;2.25;2.03;;;;;;;31.59;34.49;100238.56;6153733;23;20100;-74
2022/06/13 09:47:15;;;;;;;3.70;2.13;;;;;;;31.63;34.14;100236.09;6183202;23;20074;-74
2022/06/13 09:49:43;;;;;;;2.80;1.90;;;;;;;31.65;34.36;100228.31;6183009;23;20071;-74
2022/06/13 09:52:20;;;;;;;3.95;2.00;;;;;;;31.66;34.32;100230.81;6183181;23;20011;-74
2022/06/13 09:55:00;;;;;;;2.15;1.98;;;;;;;31.67;34.07;100226.97;6181125;23;20024;-74
2022/06/13 09:57:48;;;;;;;2.85;2.00;;;;;;;31.63;34.42;100222.22;6182243;23;20338;-74
2022/06/13 10:00:29;;;;;;;2.88;2.13;;;;;;;31.61;34.62;100218.91;6182507;23;20001;-73
2022/06/13 10:02:59;;;;;;;2.95;1.90;;;;;;;31.60;34.22;100206.94;6182784;23;20089;-74
2022/06/13 10:05:34;;;;;;;3.67;2.35;;;;;;;31.59;34.52;100210.84;6182828;23;20011;-74
2022/06/13 10:08:09;;;;;;;2.33;2.10;;;;;;;31.60;34.33;100212.50;6181431;23;20017;-74
2022/06/13 10:11:12;;;;;;;4.07;1.90;;;;;;;31.64;33.98;100207.25;6182836;23;20083;-73
2022/06/13 10:13:52;;;;;;;3.63;1.83;;;;;;;31.67;33.59;100203.94;6182711;23;20001;-73
2022/06/13 10:16:23;;;;;;;2.45;2.25;;;;;;;31.70;33.88;100195.91;6182850;23;20554;-73
2022/06/13 10:19:05;;;;;;;3.83;2.30;;;;;;;31.79;34.04;100187.88;6182678;23;20016;-74
2022/06/13 10:21:36;;;;;;;2.67;1.98;;;;;;;31.81;33.82;100183.72;6182662;23;20012;-73
2022/06/13 10:24:15;;;;;;;2.15;1.83;;;;;;;31.75;34.35;100181.19;6182712;23;20011;-73
2022/06/13 10:26:51;;;;;;;3.92;2.10;;;;;;;31.76;34.08;100172.56;6182898;23;20051;-73
2022/06/13 10:29:24;;;;;;;3.42;1.90;;;;;;;31.79;34.02;100174.81;6182935;23;20009;-74
2022/06/13 10:32:04;;;;;;;1.95;1.83;;;;;;;31.87;34.47;100170.69;6182912;23;20445;-73
2022/06/13 10:34:58;;;;;;;2.20;2.00;;;;;;;31.92;34.04;100160.41;6182736;23;20000;-73
2022/06/13 10:37:59;;;;;;;4.05;2.33;;;;;;;31.93;33.88;100159.31;6182816;23;20009;-73
2022/06/13 10:40:26;;;;;;;3.28;2.05;;;;;;;31.94;34.21;100168.47;6182663;23;20067;-74
2022/06/13 10:42:52;;;;;;;3.50;2.08;;;;;;;31.83;33.77;100153.78;6190717;23;20019;-74
2022/06/13 10:45:18;;;;;;;2.13;2.03;;;;;;;31.74;33.78;100135.13;6211361;23;20462;-74
2022/06/13 10:47:59;;;;;;;2.55;1.73;;;;;;;31.82;33.84;100148.50;6212775;23;20005;-74
2022/06/13 10:50:31;;;;;;;2.03;1.85;;;;;;;31.77;34.04;100142.91;6212701;23;20017;-74
2022/06/13 10:53:06;;;;;;;2.65;1.95;;;;;;;31.82;33.56;100142.94;6212468;23;20008;-74
2022/06/13 10:55:37;;;;;;;2.17;1.90;;;;;;;31.84;33.71;100144.34;6213008;23;20381;-74
2022/06/13 10:58:08;;;;;;;2.63;1.70;;;;;;;31.77;33.15;100140.97;6212812;23;20004;-74
2022/06/13 11:00:34;;;;;;;3.47;2.05;;;;;;;31.71;33.34;100138.47;6212755;23;20337;-74
2022/06/13 11:03:28;;;;;;;2.20;2.00;;;;;;;31.56;33.30;100135.69;6212645;23;20005;-74
2022/06/13 11:05:59;;;;;;;4.20;2.13;;;;;;;31.48;33.55;100133.44;6160613;23;20346;-74
2022/06/13 11:08:27;;;;;;;2.75;1.80;;;;;;;31.44;34.15;100129.56;6212522;23;20000;-74
2022/06/13 11:10:59;;;;;;;1.90;1.80;;;;;;;31.27;34.48;100132.56;6212709;23;20087;-74
2022/06/13 11:13:28;;;;;;;3.90;2.08;;;;;;;31.20;35.02;100129.22;6212383;23;20350;-74
2022/06/13 11:25:23;;;;;;;2.50;1.92;;;;;;;31.10;34.41;100112.56;6212251;23;20039;-74
2022/06/13 11:28:08;;;;;;;2.03;1.92;;;;;;;31.13;34.36;100112.00;6196332;23;20425;-74
2022/06/13 11:30:43;;;;;;;2.55;2.08;;;;;;;31.11;34.83;100100.34;6212344;23;20015;-74
2022/06/13 11:33:27;;;;;;;6.93;1.85;;;;;;;31.16;34.67;100105.94;6212454;23;20001;-74
2022/06/13 11:35:56;;;;;;;4.90;2.25;;;;;;;31.17;33.44;100102.03;6212373;23;20011;-74
2022/06/13 11:38:57;;;;;;;2.13;1.85;;;;;;;31.12;33.47;100090.97;6210413;23;20009;-74
2022/06/13 11:41:29;;;;;;;2.80;1.90;;;;;;;31.22;33.09;100093.75;6211522;23;20020;-74
2022/06/13 11:44:01;;;;;;;2.65;1.88;;;;;;;31.19;32.69;100088.75;6211927;23;20100;-74
2022/06/13 11:46:27;;;;;;;1.90;1.67;;;;;;;31.16;32.97;100083.75;6185413;23;20102;-74
2022/06/13 11:49:00;;;;;;;2.35;2.10;;;;;;;31.12;33.55;100068.78;6212092;23;20009;-74
2022/06/13 11:51:29;;;;;;;4.32;2.55;;;;;;;31.22;34.18;100084.59;6211915;23;20084;-74
2022/06/13 11:53:58;;;;;;;4.20;2.00;;;;;;;31.23;33.79;100083.47;6212130;23;20009;-74
2022/06/13 11:56:29;;;;;;;2.00;1.90;;;;;;;31.19;33.63;100079.59;6211991;23;20004;-74
2022/06/13 11:59:00;;;;;;;1.88;1.70;;;;;;;31.19;33.79;100079.59;6212023;23;20028;-75
2022/06/13 12:01:36;;;;;;;3.90;1.67;;;;;;;31.17;33.73;100084.59;6185264;23;20338;-74
2022/06/13 12:04:07;;;;;;;2.10;1.77;;;;;;;31.17;32.65;100087.38;6211705;23;20579;-74
2022/06/13 12:06:40;;;;;;;1.95;1.75;;;;;;;31.16;32.65;100078.22;6210337;23;20066;-74
2022/06/13 12:09:31;;;;;;;4.13;2.13;;;;;;;31.15;32.54;100065.47;6212394;23;20617;-74
2022/06/13 12:12:04;;;;;;;2.13;1.90;;;;;;;31.18;32.48;100066.84;6212136;23;20035;-74
2022/06/13 12:14:33;;;;;;;1.80;1.50;;;;;;;31.21;32.34;100075.44;6211749;23;20084;-74
2022/06/13 12:17:10;;;;;;;1.85;1.50;;;;;;;31.22;32.73;100066.03;6212051;23;20433;-74
2022/06/13 12:19:54;;;;;;;2.42;1.92;;;;;;;31.21;32.78;100063.53;6212158;23;20015;-74
2022/06/13 12:22:34;;;;;;;2.67;1.60;;;;;;;31.16;33.24;100064.34;6211584;23;20012;-74